sensor_id;sensor_type;location;lat;lon;timestamp;temperature;humidity
10788;DHT22;5446;50.826;4.380;2022-09-06T00:00:32;17.90;99.90
10788;DHT22;5446;50.826;4.380;2022-09-06T00:02:59;17.90;99.90
10788;DHT22;5446;50.826;4.380;2022-09-06T00:05:26;17.90;99.90
10788;DHT22;5446;50.826;4.380;2022-09-06T00:07:52;17.90;99.90
10788;DHT22;5446;50.826;4.380;2022-09-06T00:10:18;17.90;99.90
10788;DHT22;5446;50.826;4.380;2022-09-06T00:12:44;17.80;99.90
10788;DHT22;5446;50.826;4.380;2022-09-06T00:15:11;17.80;99.90
10788;DHT22;5446;50.826;4.380;2022-09-06T00:17:36;17.70;99.90
10788;DHT22;5446;50.826;4.380;2022-09-06T00:20:03;17.70;99.90
10788;DHT22;5446;50.826;4.380;2022-09-06T00:22:30;17.70;99.90
10788;DHT22;5446;50.826;4.380;2022-09-06T00:24:56;17.70;99.90
10788;DHT22;5446;50.826;4.380;2022-09-06T00:27:21;17.60;99.90
10788;DHT22;5446;50.826;4.380;2022-09-06T00:29:47;17.60;99.90
10788;DHT22;5446;50.826;4.380;2022-09-06T00:32:13;17.60;99.90
10788;DHT22;5446;50.826;4.380;2022-09-06T00:34:39;17.50;99.90
10788;DHT22;5446;50.826;4.380;2022-09-06T00:37:05;17.50;99.90
10788;DHT22;5446;50.826;4.380;2022-09-06T00:39:30;17.50;99.90
10788;DHT22;5446;50.826;4.380;2022-09-06T00:41:56;17.40;99.90
10788;DHT22;5446;50.826;4.380;2022-09-06T00:44:22;17.50;99.90
10788;DHT22;5446;50.826;4.380;2022-09-06T00:46:49;17.50;99.90
10788;DHT22;5446;50.826;4.380;2022-09-06T00:49:25;17.50;99.90
10788;DHT22;5446;50.826;4.380;2022-09-06T00:51:55;17.50;99.90
10788;DHT22;5446;50.826;4.380;2022-09-06T00:54:22;17.40;99.90
10788;DHT22;5446;50.826;4.380;2022-09-06T00:56:48;17.40;99.90
10788;DHT22;5446;50.826;4.380;2022-09-06T00:59:14;17.40;99.90
10788;DHT22;5446;50.826;4.380;2022-09-06T01:01:41;17.30;99.90
10788;DHT22;5446;50.826;4.380;2022-09-06T01:04:07;17.30;99.90
10788;DHT22;5446;50.826;4.380;2022-09-06T01:07:04;17.30;99.90
10788;DHT22;5446;50.826;4.380;2022-09-06T01:12:47;17.30;99.90
10788;DHT22;5446;50.826;4.380;2022-09-06T01:21:13;17.30;99.90
10788;DHT22;5446;50.826;4.380;2022-09-06T01:31:58;17.30;99.90
10788;DHT22;5446;50.826;4.380;2022-09-06T01:34:31;17.30;99.90
10788;DHT22;5446;50.826;4.380;2022-09-06T01:37:07;17.30;99.90
10788;DHT22;5446;50.826;4.380;2022-09-06T01:39:35;17.30;99.90
10788;DHT22;5446;50.826;4.380;2022-09-06T01:42:14;17.30;99.90
10788;DHT22;5446;50.826;4.380;2022-09-06T01:44:44;17.20;99.90
10788;DHT22;5446;50.826;4.380;2022-09-06T01:47:26;17.20;99.90
10788;DHT22;5446;50.826;4.380;2022-09-06T01:50:20;17.20;99.90
10788;DHT22;5446;50.826;4.380;2022-09-06T01:55:53;17.30;99.90
10788;DHT22;5446;50.826;4.380;2022-09-06T02:01:34;17.20;99.90
10788;DHT22;5446;50.826;4.380;2022-09-06T02:04:26;17.20;99.90
10788;DHT22;5446;50.826;4.380;2022-09-06T02:06:59;17.20;99.90
10788;DHT22;5446;50.826;4.380;2022-09-06T02:09:29;17.20;99.90
10788;DHT22;5446;50.826;4.380;2022-09-06T02:11:59;17.20;99.90
10788;DHT22;5446;50.826;4.380;2022-09-06T02:16:58;17.20;99.90
10788;DHT22;5446;50.826;4.380;2022-09-06T02:19:36;17.20;99.90
10788;DHT22;5446;50.826;4.380;2022-09-06T02:22:07;17.20;99.90
10788;DHT22;5446;50.826;4.380;2022-09-06T02:24:35;17.20;99.90
10788;DHT22;5446;50.826;4.380;2022-09-06T02:27:02;17.10;99.90
10788;DHT22;5446;50.826;4.380;2022-09-06T02:29:28;17.10;99.90
10788;DHT22;5446;50.826;4.380;2022-09-06T02:32:00;17.10;99.90
10788;DHT22;5446;50.826;4.380;2022-09-06T02:34:28;17.10;99.90
10788;DHT22;5446;50.826;4.380;2022-09-06T02:36:54;17.10;99.90
10788;DHT22;5446;50.826;4.380;2022-09-06T02:39:20;17.10;99.90
10788;DHT22;5446;50.826;4.380;2022-09-06T02:41:46;17.10;99.90
10788;DHT22;5446;50.826;4.380;2022-09-06T02:44:13;17.00;99.90
10788;DHT22;5446;50.826;4.380;2022-09-06T02:46:39;17.00;99.90
10788;DHT22;5446;50.826;4.380;2022-09-06T02:49:05;17.00;99.90
10788;DHT22;5446;50.826;4.380;2022-09-06T02:51:36;17.00;99.90
10788;DHT22;5446;50.826;4.380;2022-09-06T02:54:03;17.00;99.90
10788;DHT22;5446;50.826;4.380;2022-09-06T02:56:28;16.90;99.90
10788;DHT22;5446;50.826;4.380;2022-09-06T02:58:54;16.90;99.90
10788;DHT22;5446;50.826;4.380;2022-09-06T03:01:20;16.90;99.90
10788;DHT22;5446;50.826;4.380;2022-09-06T03:03:46;16.90;99.90
10788;DHT22;5446;50.826;4.380;2022-09-06T03:06:11;16.90;99.90
10788;DHT22;5446;50.826;4.380;2022-09-06T03:08:37;16.90;99.90
10788;DHT22;5446;50.826;4.380;2022-09-06T03:11:03;16.90;99.90
10788;DHT22;5446;50.826;4.380;2022-09-06T03:13:29;16.90;99.90
10788;DHT22;5446;50.826;4.380;2022-09-06T03:15:57;16.90;99.90
10788;DHT22;5446;50.826;4.380;2022-09-06T03:18:27;16.90;99.90
10788;DHT22;5446;50.826;4.380;2022-09-06T03:20:54;16.90;99.90
10788;DHT22;5446;50.826;4.380;2022-09-06T03:23:21;16.90;99.90
10788;DHT22;5446;50.826;4.380;2022-09-06T03:25:48;16.90;99.90
10788;DHT22;5446;50.826;4.380;2022-09-06T03:28:15;16.90;99.90
10788;DHT22;5446;50.826;4.380;2022-09-06T03:30:44;16.90;99.90
10788;DHT22;5446;50.826;4.380;2022-09-06T03:33:10;16.90;99.90
10788;DHT22;5446;50.826;4.380;2022-09-06T03:35:36;16.90;99.90
10788;DHT22;5446;50.826;4.380;2022-09-06T03:38:01;16.90;99.90
10788;DHT22;5446;50.826;4.380;2022-09-06T03:40:27;16.90;99.90
10788;DHT22;5446;50.826;4.380;2022-09-06T03:42:53;16.90;99.90
10788;DHT22;5446;50.826;4.380;2022-09-06T03:45:18;16.90;99.90
10788;DHT22;5446;50.826;4.380;2022-09-06T03:51:06;16.90;99.90
10788;DHT22;5446;50.826;4.380;2022-09-06T03:53:31;16.80;99.90
10788;DHT22;5446;50.826;4.380;2022-09-06T03:55:58;16.90;99.90
10788;DHT22;5446;50.826;4.380;2022-09-06T03:58:27;16.90;99.90
10788;DHT22;5446;50.826;4.380;2022-09-06T04:01:10;16.80;99.90
10788;DHT22;5446;50.826;4.380;2022-09-06T04:03:37;16.80;99.90
10788;DHT22;5446;50.826;4.380;2022-09-06T04:06:04;16.80;99.90
10788;DHT22;5446;50.826;4.380;2022-09-06T04:08:30;16.80;99.90
10788;DHT22;5446;50.826;4.380;2022-09-06T04:10:57;16.80;99.90
10788;DHT22;5446;50.826;4.380;2022-09-06T04:13:24;16.90;99.90
10788;DHT22;5446;50.826;4.380;2022-09-06T04:15:50;16.90;99.90
10788;DHT22;5446;50.826;4.380;2022-09-06T04:18:17;16.80;99.90
10788;DHT22;5446;50.826;4.380;2022-09-06T04:20:47;16.80;99.90
10788;DHT22;5446;50.826;4.380;2022-09-06T04:23:14;16.80;99.90
10788;DHT22;5446;50.826;4.380;2022-09-06T04:25:40;16.80;99.90
10788;DHT22;5446;50.826;4.380;2022-09-06T04:28:05;16.80;99.90
10788;DHT22;5446;50.826;4.380;2022-09-06T04:30:31;16.80;99.90
10788;DHT22;5446;50.826;4.380;2022-09-06T04:32:57;16.90;99.90
10788;DHT22;5446;50.826;4.380;2022-09-06T04:35:22;16.90;99.90
10788;DHT22;5446;50.826;4.380;2022-09-06T04:37:48;16.90;99.90
10788;DHT22;5446;50.826;4.380;2022-09-06T04:40:14;16.90;99.90
10788;DHT22;5446;50.826;4.380;2022-09-06T04:42:39;16.80;99.90
10788;DHT22;5446;50.826;4.380;2022-09-06T04:45:06;16.90;99.90
10788;DHT22;5446;50.826;4.380;2022-09-06T04:47:34;16.90;99.90
10788;DHT22;5446;50.826;4.380;2022-09-06T04:50:00;16.90;99.90
10788;DHT22;5446;50.826;4.380;2022-09-06T04:52:26;16.90;99.90
10788;DHT22;5446;50.826;4.380;2022-09-06T04:54:51;16.90;99.90
10788;DHT22;5446;50.826;4.380;2022-09-06T04:57:17;17.00;99.90
10788;DHT22;5446;50.826;4.380;2022-09-06T04:59:43;17.00;99.90
10788;DHT22;5446;50.826;4.380;2022-09-06T05:02:08;17.00;99.90
10788;DHT22;5446;50.826;4.380;2022-09-06T05:04:34;17.00;99.90
10788;DHT22;5446;50.826;4.380;2022-09-06T05:07:06;17.00;99.90
10788;DHT22;5446;50.826;4.380;2022-09-06T05:09:32;17.10;99.90
10788;DHT22;5446;50.826;4.380;2022-09-06T05:11:59;17.10;99.90
10788;DHT22;5446;50.826;4.380;2022-09-06T05:14:26;17.10;99.90
10788;DHT22;5446;50.826;4.380;2022-09-06T05:16:52;17.10;99.90
10788;DHT22;5446;50.826;4.380;2022-09-06T05:19:18;17.20;99.90
10788;DHT22;5446;50.826;4.380;2022-09-06T05:21:44;17.20;99.90
10788;DHT22;5446;50.826;4.380;2022-09-06T05:24:10;17.20;99.90
10788;DHT22;5446;50.826;4.380;2022-09-06T05:26:36;17.20;99.90
10788;DHT22;5446;50.826;4.380;2022-09-06T05:29:01;17.30;99.90
10788;DHT22;5446;50.826;4.380;2022-09-06T05:31:29;17.30;99.90
10788;DHT22;5446;50.826;4.380;2022-09-06T05:33:55;17.30;99.90
10788;DHT22;5446;50.826;4.380;2022-09-06T05:36:23;17.30;99.90
10788;DHT22;5446;50.826;4.380;2022-09-06T05:38:50;17.30;99.90
10788;DHT22;5446;50.826;4.380;2022-09-06T05:41:16;17.30;99.90
10788;DHT22;5446;50.826;4.380;2022-09-06T05:43:42;17.40;99.90
10788;DHT22;5446;50.826;4.380;2022-09-06T05:46:08;17.40;99.90
10788;DHT22;5446;50.826;4.380;2022-09-06T05:48:34;17.40;99.90
10788;DHT22;5446;50.826;4.380;2022-09-06T05:51:07;17.60;99.90
10788;DHT22;5446;50.826;4.380;2022-09-06T05:53:35;17.60;99.90
10788;DHT22;5446;50.826;4.380;2022-09-06T05:56:02;17.70;99.90
10788;DHT22;5446;50.826;4.380;2022-09-06T05:58:28;17.70;99.90
10788;DHT22;5446;50.826;4.380;2022-09-06T06:01:07;17.70;99.90
10788;DHT22;5446;50.826;4.380;2022-09-06T06:03:37;17.90;99.90
10788;DHT22;5446;50.826;4.380;2022-09-06T06:06:03;17.90;99.90
10788;DHT22;5446;50.826;4.380;2022-09-06T06:08:29;18.00;99.90
10788;DHT22;5446;50.826;4.380;2022-09-06T06:10:58;18.00;99.90
10788;DHT22;5446;50.826;4.380;2022-09-06T06:13:25;18.10;99.90
10788;DHT22;5446;50.826;4.380;2022-09-06T06:15:51;18.10;99.90
10788;DHT22;5446;50.826;4.380;2022-09-06T06:18:17;18.10;99.90
10788;DHT22;5446;50.826;4.380;2022-09-06T06:20:43;18.20;99.90
10788;DHT22;5446;50.826;4.380;2022-09-06T06:23:08;18.20;99.90
10788;DHT22;5446;50.826;4.380;2022-09-06T06:25:34;18.20;99.90
10788;DHT22;5446;50.826;4.380;2022-09-06T06:27:59;18.30;99.90
10788;DHT22;5446;50.826;4.380;2022-09-06T06:30:25;18.30;99.90
10788;DHT22;5446;50.826;4.380;2022-09-06T06:32:51;18.30;99.90
10788;DHT22;5446;50.826;4.380;2022-09-06T06:35:16;18.40;99.90
10788;DHT22;5446;50.826;4.380;2022-09-06T06:37:42;18.40;99.90
10788;DHT22;5446;50.826;4.380;2022-09-06T06:40:09;18.50;99.90
10788;DHT22;5446;50.826;4.380;2022-09-06T06:46:13;18.60;99.90
10788;DHT22;5446;50.826;4.380;2022-09-06T06:48:39;18.70;99.90
10788;DHT22;5446;50.826;4.380;2022-09-06T06:51:06;18.80;99.90
10788;DHT22;5446;50.826;4.380;2022-09-06T06:53:32;18.80;99.90
10788;DHT22;5446;50.826;4.380;2022-09-06T06:55:59;18.90;99.90
10788;DHT22;5446;50.826;4.380;2022-09-06T06:58:25;18.90;99.90
10788;DHT22;5446;50.826;4.380;2022-09-06T07:00:51;18.90;99.90
10788;DHT22;5446;50.826;4.380;2022-09-06T07:03:17;19.00;99.90
10788;DHT22;5446;50.826;4.380;2022-09-06T07:05:43;19.00;99.90
10788;DHT22;5446;50.826;4.380;2022-09-06T07:08:10;19.00;99.90
10788;DHT22;5446;50.826;4.380;2022-09-06T07:10:35;19.10;99.90
10788;DHT22;5446;50.826;4.380;2022-09-06T07:13:01;19.10;99.90
10788;DHT22;5446;50.826;4.380;2022-09-06T07:15:27;19.20;99.90
10788;DHT22;5446;50.826;4.380;2022-09-06T07:17:56;19.20;99.90
10788;DHT22;5446;50.826;4.380;2022-09-06T07:20:23;19.20;99.90
10788;DHT22;5446;50.826;4.380;2022-09-06T07:23:04;19.30;99.90
10788;DHT22;5446;50.826;4.380;2022-09-06T07:25:30;19.40;99.90
10788;DHT22;5446;50.826;4.380;2022-09-06T07:28:04;19.50;99.90
10788;DHT22;5446;50.826;4.380;2022-09-06T07:30:36;19.50;99.90
10788;DHT22;5446;50.826;4.380;2022-09-06T07:33:03;19.60;99.90
10788;DHT22;5446;50.826;4.380;2022-09-06T07:35:30;19.60;99.90
10788;DHT22;5446;50.826;4.380;2022-09-06T07:37:56;19.70;99.90
10788;DHT22;5446;50.826;4.380;2022-09-06T07:40:24;19.70;99.90
10788;DHT22;5446;50.826;4.380;2022-09-06T07:42:50;19.80;99.90
10788;DHT22;5446;50.826;4.380;2022-09-06T07:45:15;19.80;99.90
10788;DHT22;5446;50.826;4.380;2022-09-06T07:47:41;19.90;99.90
10788;DHT22;5446;50.826;4.380;2022-09-06T07:50:07;19.90;99.90
10788;DHT22;5446;50.826;4.380;2022-09-06T07:52:33;19.90;99.90
10788;DHT22;5446;50.826;4.380;2022-09-06T07:54:59;20.00;99.90
10788;DHT22;5446;50.826;4.380;2022-09-06T07:57:24;20.00;99.90
10788;DHT22;5446;50.826;4.380;2022-09-06T07:59:50;20.10;99.90
10788;DHT22;5446;50.826;4.380;2022-09-06T08:02:16;20.10;99.90
10788;DHT22;5446;50.826;4.380;2022-09-06T08:04:42;20.20;99.90
10788;DHT22;5446;50.826;4.380;2022-09-06T08:07:08;20.20;99.90
10788;DHT22;5446;50.826;4.380;2022-09-06T08:09:34;20.30;99.90
10788;DHT22;5446;50.826;4.380;2022-09-06T08:12:01;20.40;99.90
10788;DHT22;5446;50.826;4.380;2022-09-06T08:14:34;20.40;99.90
10788;DHT22;5446;50.826;4.380;2022-09-06T08:17:00;20.40;99.90
10788;DHT22;5446;50.826;4.380;2022-09-06T08:19:26;20.40;99.90
10788;DHT22;5446;50.826;4.380;2022-09-06T08:21:55;20.50;99.90
10788;DHT22;5446;50.826;4.380;2022-09-06T08:24:21;20.50;99.90
10788;DHT22;5446;50.826;4.380;2022-09-06T08:26:47;20.60;99.90
10788;DHT22;5446;50.826;4.380;2022-09-06T08:29:13;20.60;99.90
10788;DHT22;5446;50.826;4.380;2022-09-06T08:31:41;20.60;99.90
10788;DHT22;5446;50.826;4.380;2022-09-06T08:34:07;20.60;99.90
10788;DHT22;5446;50.826;4.380;2022-09-06T08:36:33;20.70;99.90
10788;DHT22;5446;50.826;4.380;2022-09-06T08:39:05;20.80;99.90
10788;DHT22;5446;50.826;4.380;2022-09-06T08:44:24;20.90;99.90
10788;DHT22;5446;50.826;4.380;2022-09-06T08:46:58;20.90;99.90
10788;DHT22;5446;50.826;4.380;2022-09-06T08:49:30;21.10;99.90
10788;DHT22;5446;50.826;4.380;2022-09-06T08:59:38;21.40;99.90
10788;DHT22;5446;50.826;4.380;2022-09-06T09:02:17;21.40;99.90
10788;DHT22;5446;50.826;4.380;2022-09-06T09:04:53;21.40;99.90
10788;DHT22;5446;50.826;4.380;2022-09-06T09:07:37;21.50;99.90
10788;DHT22;5446;50.826;4.380;2022-09-06T09:10:11;21.60;99.90
10788;DHT22;5446;50.826;4.380;2022-09-06T09:12:49;21.60;99.90
10788;DHT22;5446;50.826;4.380;2022-09-06T09:15:17;21.60;99.90
10788;DHT22;5446;50.826;4.380;2022-09-06T09:17:44;21.70;99.90
10788;DHT22;5446;50.826;4.380;2022-09-06T09:20:10;21.80;99.90
10788;DHT22;5446;50.826;4.380;2022-09-06T09:22:36;21.90;99.90
10788;DHT22;5446;50.826;4.380;2022-09-06T09:25:04;22.00;99.90
10788;DHT22;5446;50.826;4.380;2022-09-06T09:27:32;22.10;99.90
10788;DHT22;5446;50.826;4.380;2022-09-06T09:30:00;22.10;99.90
10788;DHT22;5446;50.826;4.380;2022-09-06T09:35:31;22.20;99.90
10788;DHT22;5446;50.826;4.380;2022-09-06T09:40:55;22.40;99.90
10788;DHT22;5446;50.826;4.380;2022-09-06T09:43:37;22.50;99.90
10788;DHT22;5446;50.826;4.380;2022-09-06T09:51:45;22.50;99.90
10788;DHT22;5446;50.826;4.380;2022-09-06T09:54:13;22.50;99.90
10788;DHT22;5446;50.826;4.380;2022-09-06T09:56:46;22.60;99.90
10788;DHT22;5446;50.826;4.380;2022-09-06T09:59:37;22.70;99.90
10788;DHT22;5446;50.826;4.380;2022-09-06T10:04:52;22.70;99.90
10788;DHT22;5446;50.826;4.380;2022-09-06T10:07:24;22.80;99.90
10788;DHT22;5446;50.826;4.380;2022-09-06T10:10:03;23.00;99.90
10788;DHT22;5446;50.826;4.380;2022-09-06T10:12:36;23.00;99.90
10788;DHT22;5446;50.826;4.380;2022-09-06T10:15:08;23.10;99.90
10788;DHT22;5446;50.826;4.380;2022-09-06T10:17:46;23.00;99.90
10788;DHT22;5446;50.826;4.380;2022-09-06T10:20:12;23.10;99.90
10788;DHT22;5446;50.826;4.380;2022-09-06T10:25:43;23.10;99.90
10788;DHT22;5446;50.826;4.380;2022-09-06T10:28:22;23.00;99.90
10788;DHT22;5446;50.826;4.380;2022-09-06T10:33:50;23.30;99.90
10788;DHT22;5446;50.826;4.380;2022-09-06T10:36:19;23.40;99.90
10788;DHT22;5446;50.826;4.380;2022-09-06T10:39:12;23.40;99.90
10788;DHT22;5446;50.826;4.380;2022-09-06T10:47:15;23.60;99.90
10788;DHT22;5446;50.826;4.380;2022-09-06T10:49:44;23.80;99.90
10788;DHT22;5446;50.826;4.380;2022-09-06T10:52:22;23.70;99.90
10788;DHT22;5446;50.826;4.380;2022-09-06T10:54:50;23.80;99.90
10788;DHT22;5446;50.826;4.380;2022-09-06T10:57:52;23.70;99.90
10788;DHT22;5446;50.826;4.380;2022-09-06T11:00:20;23.80;99.90
10788;DHT22;5446;50.826;4.380;2022-09-06T11:03:23;23.90;99.90
10788;DHT22;5446;50.826;4.380;2022-09-06T11:05:55;23.90;99.90
10788;DHT22;5446;50.826;4.380;2022-09-06T11:08:29;23.90;99.90
10788;DHT22;5446;50.826;4.380;2022-09-06T11:11:03;24.00;99.90
10788;DHT22;5446;50.826;4.380;2022-09-06T11:13:31;24.10;99.90
10788;DHT22;5446;50.826;4.380;2022-09-06T11:24:16;24.10;99.90
10788;DHT22;5446;50.826;4.380;2022-09-06T11:29:40;24.40;99.90
10788;DHT22;5446;50.826;4.380;2022-09-06T11:32:33;24.40;99.90
10788;DHT22;5446;50.826;4.380;2022-09-06T11:35:05;24.50;99.90
10788;DHT22;5446;50.826;4.380;2022-09-06T11:37:34;24.50;99.90
10788;DHT22;5446;50.826;4.380;2022-09-06T11:40:16;24.50;99.90
10788;DHT22;5446;50.826;4.380;2022-09-06T11:45:16;24.60;99.90
10788;DHT22;5446;50.826;4.380;2022-09-06T11:47:51;24.70;99.90
10788;DHT22;5446;50.826;4.380;2022-09-06T11:52:58;24.60;99.90
10788;DHT22;5446;50.826;4.380;2022-09-06T11:55:49;24.80;99.90
10788;DHT22;5446;50.826;4.380;2022-09-06T12:00:41;25.00;99.90
10788;DHT22;5446;50.826;4.380;2022-09-06T12:03:08;25.00;99.90
10788;DHT22;5446;50.826;4.380;2022-09-06T12:06:12;25.10;99.90
10788;DHT22;5446;50.826;4.380;2022-09-06T12:08:38;25.20;99.90
10788;DHT22;5446;50.826;4.380;2022-09-06T12:11:20;25.20;99.90
10788;DHT22;5446;50.826;4.380;2022-09-06T12:13:58;25.20;99.90
10788;DHT22;5446;50.826;4.380;2022-09-06T12:25:01;25.30;99.90
10788;DHT22;5446;50.826;4.380;2022-09-06T12:30:39;25.40;99.90
10788;DHT22;5446;50.826;4.380;2022-09-06T12:33:31;25.50;99.90
10788;DHT22;5446;50.826;4.380;2022-09-06T12:41:29;25.60;99.90
10788;DHT22;5446;50.826;4.380;2022-09-06T12:43:58;25.70;99.90
10788;DHT22;5446;50.826;4.380;2022-09-06T12:46:27;25.90;99.90
10788;DHT22;5446;50.826;4.380;2022-09-06T12:49:10;26.00;99.90
10788;DHT22;5446;50.826;4.380;2022-09-06T12:51:40;26.00;99.90
10788;DHT22;5446;50.826;4.380;2022-09-06T12:54:24;26.00;99.90
10788;DHT22;5446;50.826;4.380;2022-09-06T12:56:52;25.80;99.90
10788;DHT22;5446;50.826;4.380;2022-09-06T12:59:23;25.90;99.90
10788;DHT22;5446;50.826;4.380;2022-09-06T13:02:03;26.00;99.90
10788;DHT22;5446;50.826;4.380;2022-09-06T13:04:43;26.10;99.90
10788;DHT22;5446;50.826;4.380;2022-09-06T13:07:15;26.20;99.90
10788;DHT22;5446;50.826;4.380;2022-09-06T13:09:43;26.10;99.90
10788;DHT22;5446;50.826;4.380;2022-09-06T13:12:30;26.20;99.90
10788;DHT22;5446;50.826;4.380;2022-09-06T13:15:02;26.30;99.90
10788;DHT22;5446;50.826;4.380;2022-09-06T13:17:29;26.40;99.90
10788;DHT22;5446;50.826;4.380;2022-09-06T13:19:56;26.50;99.90
10788;DHT22;5446;50.826;4.380;2022-09-06T13:22:46;26.50;99.90
10788;DHT22;5446;50.826;4.380;2022-09-06T13:27:45;26.60;99.90
10788;DHT22;5446;50.826;4.380;2022-09-06T13:30:38;26.60;99.90
10788;DHT22;5446;50.826;4.380;2022-09-06T13:33:07;26.60;99.90
10788;DHT22;5446;50.826;4.380;2022-09-06T13:35:49;26.70;99.90
10788;DHT22;5446;50.826;4.380;2022-09-06T13:38:30;26.80;99.90
10788;DHT22;5446;50.826;4.380;2022-09-06T13:40:56;26.90;99.90
10788;DHT22;5446;50.826;4.380;2022-09-06T13:43:24;27.00;99.90
10788;DHT22;5446;50.826;4.380;2022-09-06T13:46:07;27.20;99.90
10788;DHT22;5446;50.826;4.380;2022-09-06T13:48:34;27.20;99.90
10788;DHT22;5446;50.826;4.380;2022-09-06T13:51:02;27.20;99.90
10788;DHT22;5446;50.826;4.380;2022-09-06T13:53:29;27.40;99.90
10788;DHT22;5446;50.826;4.380;2022-09-06T13:55:56;27.50;99.90
10788;DHT22;5446;50.826;4.380;2022-09-06T13:58:22;27.60;99.90
10788;DHT22;5446;50.826;4.380;2022-09-06T14:00:48;27.50;99.90
10788;DHT22;5446;50.826;4.380;2022-09-06T14:03:21;27.70;99.90
10788;DHT22;5446;50.826;4.380;2022-09-06T14:05:49;27.70;99.90
10788;DHT22;5446;50.826;4.380;2022-09-06T14:08:15;27.70;99.90
10788;DHT22;5446;50.826;4.380;2022-09-06T14:10:41;27.60;99.90
10788;DHT22;5446;50.826;4.380;2022-09-06T14:13:07;27.90;99.90
10788;DHT22;5446;50.826;4.380;2022-09-06T14:15:33;27.90;99.90
10788;DHT22;5446;50.826;4.380;2022-09-06T14:17:59;27.70;99.90
10788;DHT22;5446;50.826;4.380;2022-09-06T14:20:25;27.50;99.90
10788;DHT22;5446;50.826;4.380;2022-09-06T14:22:50;27.50;99.90
10788;DHT22;5446;50.826;4.380;2022-09-06T14:25:16;27.50;99.90
10788;DHT22;5446;50.826;4.380;2022-09-06T14:27:42;27.50;99.90
10788;DHT22;5446;50.826;4.380;2022-09-06T14:30:08;27.50;99.90
10788;DHT22;5446;50.826;4.380;2022-09-06T14:32:34;27.30;99.90
10788;DHT22;5446;50.826;4.380;2022-09-06T14:35:00;27.30;99.90
10788;DHT22;5446;50.826;4.380;2022-09-06T14:37:26;27.30;99.90
10788;DHT22;5446;50.826;4.380;2022-09-06T14:39:52;27.20;99.90
10788;DHT22;5446;50.826;4.380;2022-09-06T14:42:18;27.10;99.90
10788;DHT22;5446;50.826;4.380;2022-09-06T14:44:44;27.00;99.90
10788;DHT22;5446;50.826;4.380;2022-09-06T14:47:10;26.90;99.90
10788;DHT22;5446;50.826;4.380;2022-09-06T14:49:36;26.70;99.90
10788;DHT22;5446;50.826;4.380;2022-09-06T14:52:02;26.70;99.90
10788;DHT22;5446;50.826;4.380;2022-09-06T14:54:28;26.70;99.90
10788;DHT22;5446;50.826;4.380;2022-09-06T14:56:54;26.60;99.90
10788;DHT22;5446;50.826;4.380;2022-09-06T14:59:19;26.60;99.90
10788;DHT22;5446;50.826;4.380;2022-09-06T15:01:46;26.50;99.90
10788;DHT22;5446;50.826;4.380;2022-09-06T15:04:11;26.50;99.90
10788;DHT22;5446;50.826;4.380;2022-09-06T15:06:39;26.50;99.90
10788;DHT22;5446;50.826;4.380;2022-09-06T15:09:05;26.50;99.90
10788;DHT22;5446;50.826;4.380;2022-09-06T15:11:44;26.40;99.90
10788;DHT22;5446;50.826;4.380;2022-09-06T15:14:15;26.40;99.90
10788;DHT22;5446;50.826;4.380;2022-09-06T15:16:42;26.40;99.90
10788;DHT22;5446;50.826;4.380;2022-09-06T15:19:08;26.30;99.90
10788;DHT22;5446;50.826;4.380;2022-09-06T15:21:34;26.30;99.90
10788;DHT22;5446;50.826;4.380;2022-09-06T15:24:00;26.30;99.90
10788;DHT22;5446;50.826;4.380;2022-09-06T15:26:27;26.20;99.90
10788;DHT22;5446;50.826;4.380;2022-09-06T15:28:53;26.20;99.90
10788;DHT22;5446;50.826;4.380;2022-09-06T15:31:19;26.20;99.90
10788;DHT22;5446;50.826;4.380;2022-09-06T15:33:45;26.20;99.90
10788;DHT22;5446;50.826;4.380;2022-09-06T15:36:13;26.20;99.90
10788;DHT22;5446;50.826;4.380;2022-09-06T15:41:07;26.10;99.90
10788;DHT22;5446;50.826;4.380;2022-09-06T15:43:34;26.00;99.90
10788;DHT22;5446;50.826;4.380;2022-09-06T15:46:00;26.10;99.90
10788;DHT22;5446;50.826;4.380;2022-09-06T15:48:26;26.10;99.90
10788;DHT22;5446;50.826;4.380;2022-09-06T15:50:52;26.10;99.90
10788;DHT22;5446;50.826;4.380;2022-09-06T15:53:18;26.20;99.90
10788;DHT22;5446;50.826;4.380;2022-09-06T15:55:44;26.20;99.90
10788;DHT22;5446;50.826;4.380;2022-09-06T15:58:26;26.30;99.90
10788;DHT22;5446;50.826;4.380;2022-09-06T16:01:09;26.30;99.90
10788;DHT22;5446;50.826;4.380;2022-09-06T16:03:40;26.50;99.90
10788;DHT22;5446;50.826;4.380;2022-09-06T16:08:39;26.70;99.90
10788;DHT22;5446;50.826;4.380;2022-09-06T16:11:10;26.70;99.90
10788;DHT22;5446;50.826;4.380;2022-09-06T16:13:37;26.80;99.90
10788;DHT22;5446;50.826;4.380;2022-09-06T16:16:05;26.80;99.90
10788;DHT22;5446;50.826;4.380;2022-09-06T16:18:35;26.80;99.90
10788;DHT22;5446;50.826;4.380;2022-09-06T16:23:35;27.00;99.90
10788;DHT22;5446;50.826;4.380;2022-09-06T16:26:02;26.90;99.90
10788;DHT22;5446;50.826;4.380;2022-09-06T16:28:30;26.90;99.90
10788;DHT22;5446;50.826;4.380;2022-09-06T16:31:00;27.50;99.90
10788;DHT22;5446;50.826;4.380;2022-09-06T16:33:27;28.60;99.90
10788;DHT22;5446;50.826;4.380;2022-09-06T16:35:53;29.30;99.90
10788;DHT22;5446;50.826;4.380;2022-09-06T16:38:18;29.90;99.90
10788;DHT22;5446;50.826;4.380;2022-09-06T16:40:45;30.00;99.90
10788;DHT22;5446;50.826;4.380;2022-09-06T16:43:11;30.20;99.90
10788;DHT22;5446;50.826;4.380;2022-09-06T16:45:38;29.80;99.90
10788;DHT22;5446;50.826;4.380;2022-09-06T16:48:04;29.60;99.90
10788;DHT22;5446;50.826;4.380;2022-09-06T16:50:31;29.20;99.90
10788;DHT22;5446;50.826;4.380;2022-09-06T16:52:57;28.50;99.90
10788;DHT22;5446;50.826;4.380;2022-09-06T16:55:23;28.20;99.90
10788;DHT22;5446;50.826;4.380;2022-09-06T16:57:48;27.90;99.90
10788;DHT22;5446;50.826;4.380;2022-09-06T17:00:14;27.60;99.90
10788;DHT22;5446;50.826;4.380;2022-09-06T17:02:41;27.40;99.90
10788;DHT22;5446;50.826;4.380;2022-09-06T17:05:10;27.10;99.90
10788;DHT22;5446;50.826;4.380;2022-09-06T17:07:36;26.90;99.90
10788;DHT22;5446;50.826;4.380;2022-09-06T17:10:02;26.60;99.90
10788;DHT22;5446;50.826;4.380;2022-09-06T17:12:28;26.40;99.90
10788;DHT22;5446;50.826;4.380;2022-09-06T17:14:55;26.40;99.90
10788;DHT22;5446;50.826;4.380;2022-09-06T17:17:21;26.20;99.90
10788;DHT22;5446;50.826;4.380;2022-09-06T17:19:46;26.20;99.90
10788;DHT22;5446;50.826;4.380;2022-09-06T17:22:12;26.20;99.90
10788;DHT22;5446;50.826;4.380;2022-09-06T17:24:39;26.10;99.90
10788;DHT22;5446;50.826;4.380;2022-09-06T17:27:06;26.00;99.90
10788;DHT22;5446;50.826;4.380;2022-09-06T17:29:33;26.00;99.90
10788;DHT22;5446;50.826;4.380;2022-09-06T17:31:59;25.90;99.90
10788;DHT22;5446;50.826;4.380;2022-09-06T17:34:25;25.90;99.90
10788;DHT22;5446;50.826;4.380;2022-09-06T17:36:51;25.80;99.90
10788;DHT22;5446;50.826;4.380;2022-09-06T17:39:19;25.80;99.90
10788;DHT22;5446;50.826;4.380;2022-09-06T17:41:49;25.70;99.90
10788;DHT22;5446;50.826;4.380;2022-09-06T17:44:17;25.70;99.90
10788;DHT22;5446;50.826;4.380;2022-09-06T17:46:44;25.60;99.90
10788;DHT22;5446;50.826;4.380;2022-09-06T17:49:11;25.60;99.90
10788;DHT22;5446;50.826;4.380;2022-09-06T17:51:37;25.50;99.90